sensor_id;sensor_type;location;lat;lon;timestamp;pressure;altitude;pressure_sealevel;temperature;humidity
55914;BME280;58179;48.776;9.124;2022-11-20T00:01:12;96844.41;;;4.15;100.00
55914;BME280;58179;48.776;9.124;2022-11-20T00:03:40;96843.41;;;4.16;100.00
55914;BME280;58179;48.776;9.124;2022-11-20T00:06:09;96843.75;;;4.19;100.00
55914;BME280;58179;48.776;9.124;2022-11-20T00:08:35;96845.22;;;4.15;100.00
55914;BME280;58179;48.776;9.124;2022-11-20T00:11:06;96844.66;;;4.13;100.00
55914;BME280;58179;48.776;9.124;2022-11-20T00:13:32;96840.88;;;4.09;100.00
55914;BME280;58179;48.776;9.124;2022-11-20T00:16:00;96842.25;;;4.12;100.00
55914;BME280;58179;48.776;9.124;2022-11-20T00:18:27;96835.06;;;4.07;100.00
55914;BME280;58179;48.776;9.124;2022-11-20T00:21:00;96843.06;;;4.12;100.00
55914;BME280;58179;48.776;9.124;2022-11-20T00:23:26;96840.19;;;4.14;100.00
55914;BME280;58179;48.776;9.124;2022-11-20T00:25:52;96841.25;;;4.13;100.00
55914;BME280;58179;48.776;9.124;2022-11-20T00:28:18;96840.56;;;4.17;100.00
55914;BME280;58179;48.776;9.124;2022-11-20T00:30:44;96828.69;;;4.15;100.00
55914;BME280;58179;48.776;9.124;2022-11-20T00:33:10;96836.81;;;4.13;100.00
55914;BME280;58179;48.776;9.124;2022-11-20T00:35:36;96836.56;;;4.15;100.00
55914;BME280;58179;48.776;9.124;2022-11-20T00:38:03;96843.19;;;4.17;100.00
55914;BME280;58179;48.776;9.124;2022-11-20T00:40:29;96834.63;;;4.22;100.00
55914;BME280;58179;48.776;9.124;2022-11-20T00:42:55;96838.84;;;4.23;100.00
55914;BME280;58179;48.776;9.124;2022-11-20T00:45:21;96834.41;;;4.23;100.00
55914;BME280;58179;48.776;9.124;2022-11-20T00:47:47;96827.34;;;4.24;100.00
55914;BME280;58179;48.776;9.124;2022-11-20T00:50:13;96836.47;;;4.21;100.00
55914;BME280;58179;48.776;9.124;2022-11-20T00:52:40;96833.41;;;4.24;100.00
55914;BME280;58179;48.776;9.124;2022-11-20T00:55:08;96839.06;;;4.21;100.00
55914;BME280;58179;48.776;9.124;2022-11-20T00:57:34;96836.34;;;4.16;100.00
55914;BME280;58179;48.776;9.124;2022-11-20T01:00:00;96832.34;;;4.14;100.00
55914;BME280;58179;48.776;9.124;2022-11-20T01:02:26;96836.56;;;4.15;100.00
55914;BME280;58179;48.776;9.124;2022-11-20T01:04:52;96839.31;;;4.20;100.00
55914;BME280;58179;48.776;9.124;2022-11-20T01:07:18;96835.06;;;4.07;100.00
55914;BME280;58179;48.776;9.124;2022-11-20T01:09:44;96833.91;;;4.03;100.00
55914;BME280;58179;48.776;9.124;2022-11-20T01:12:11;96834.13;;;4.02;100.00
55914;BME280;58179;48.776;9.124;2022-11-20T01:14:37;96837.84;;;3.94;100.00
55914;BME280;58179;48.776;9.124;2022-11-20T01:17:03;96837.16;;;3.87;100.00
55914;BME280;58179;48.776;9.124;2022-11-20T01:19:30;96839.41;;;3.83;100.00
55914;BME280;58179;48.776;9.124;2022-11-20T01:21:56;96842.00;;;3.83;100.00
55914;BME280;58179;48.776;9.124;2022-11-20T01:24:23;96842.69;;;3.79;100.00
55914;BME280;58179;48.776;9.124;2022-11-20T01:26:50;96841.56;;;3.75;100.00
55914;BME280;58179;48.776;9.124;2022-11-20T01:29:20;96852.38;;;3.78;100.00
55914;BME280;58179;48.776;9.124;2022-11-20T01:31:47;96855.19;;;3.77;100.00
55914;BME280;58179;48.776;9.124;2022-11-20T01:34:15;96853.91;;;3.68;100.00
55914;BME280;58179;48.776;9.124;2022-11-20T01:36:43;96856.84;;;3.60;100.00
55914;BME280;58179;48.776;9.124;2022-11-20T01:39:13;96848.53;;;3.63;100.00
55914;BME280;58179;48.776;9.124;2022-11-20T01:41:40;96852.63;;;3.59;100.00
55914;BME280;58179;48.776;9.124;2022-11-20T01:44:55;96851.69;;;3.53;100.00
55914;BME280;58179;48.776;9.124;2022-11-20T01:47:28;96846.28;;;3.48;100.00
55914;BME280;58179;48.776;9.124;2022-11-20T01:50:03;96847.91;;;3.49;100.00
55914;BME280;58179;48.776;9.124;2022-11-20T01:52:36;96851.00;;;3.58;100.00
55914;BME280;58179;48.776;9.124;2022-11-20T01:55:07;96856.69;;;3.55;100.00
55914;BME280;58179;48.776;9.124;2022-11-20T01:57:35;96849.41;;;3.57;100.00
55914;BME280;58179;48.776;9.124;2022-11-20T02:00:07;96852.69;;;3.52;100.00
55914;BME280;58179;48.776;9.124;2022-11-20T02:02:33;96852.84;;;3.57;100.00
55914;BME280;58179;48.776;9.124;2022-11-20T02:05:08;96857.47;;;3.55;100.00
55914;BME280;58179;48.776;9.124;2022-11-20T02:07:38;96852.91;;;3.50;100.00
55914;BME280;58179;48.776;9.124;2022-11-20T02:10:05;96854.78;;;3.62;100.00
55914;BME280;58179;48.776;9.124;2022-11-20T02:12:31;96858.44;;;3.61;100.00
55914;BME280;58179;48.776;9.124;2022-11-20T02:15:17;96857.84;;;3.59;100.00
55914;BME280;58179;48.776;9.124;2022-11-20T02:17:43;96852.84;;;3.57;100.00
55914;BME280;58179;48.776;9.124;2022-11-20T02:20:10;96850.50;;;3.49;100.00
55914;BME280;58179;48.776;9.124;2022-11-20T02:22:42;96858.56;;;3.47;100.00
55914;BME280;58179;48.776;9.124;2022-11-20T02:25:15;96856.03;;;3.41;100.00
55914;BME280;58179;48.776;9.124;2022-11-20T02:27:41;96863.53;;;3.37;100.00
55914;BME280;58179;48.776;9.124;2022-11-20T02:30:09;96865.69;;;3.40;100.00
55914;BME280;58179;48.776;9.124;2022-11-20T02:32:38;96862.72;;;3.37;100.00
55914;BME280;58179;48.776;9.124;2022-11-20T02:35:09;96868.75;;;3.37;100.00
55914;BME280;58179;48.776;9.124;2022-11-20T02:37:38;96864.34;;;3.38;100.00
55914;BME280;58179;48.776;9.124;2022-11-20T02:40:07;96861.25;;;3.41;100.00
55914;BME280;58179;48.776;9.124;2022-11-20T02:42:35;96874.13;;;3.42;100.00
55914;BME280;58179;48.776;9.124;2022-11-20T02:45:01;96860.19;;;3.48;100.00
55914;BME280;58179;48.776;9.124;2022-11-20T02:47:27;96856.13;;;3.53;100.00
55914;BME280;58179;48.776;9.124;2022-11-20T02:49:53;96864.69;;;3.60;100.00
55914;BME280;58179;48.776;9.124;2022-11-20T02:52:19;96864.38;;;3.68;100.00
55914;BME280;58179;48.776;9.124;2022-11-20T02:54:45;96857.91;;;3.70;100.00
55914;BME280;58179;48.776;9.124;2022-11-20T02:57:11;96856.28;;;3.69;100.00
55914;BME280;58179;48.776;9.124;2022-11-20T02:59:38;96863.50;;;3.74;100.00
55914;BME280;58179;48.776;9.124;2022-11-20T03:02:04;96867.72;;;3.75;100.00
55914;BME280;58179;48.776;9.124;2022-11-20T03:04:30;96868.78;;;3.85;100.00
55914;BME280;58179;48.776;9.124;2022-11-20T03:06:56;96864.56;;;3.84;100.00
55914;BME280;58179;48.776;9.124;2022-11-20T03:09:22;96865.38;;;3.85;100.00
55914;BME280;58179;48.776;9.124;2022-11-20T03:11:48;96865.44;;;3.78;100.00
55914;BME280;58179;48.776;9.124;2022-11-20T03:14:15;96856.72;;;3.84;100.00
55914;BME280;58179;48.776;9.124;2022-11-20T03:16:42;96861.59;;;3.81;100.00
55914;BME280;58179;48.776;9.124;2022-11-20T03:19:08;96853.63;;;3.76;100.00
55914;BME280;58179;48.776;9.124;2022-11-20T03:21:34;96859.59;;;3.65;100.00
55914;BME280;58179;48.776;9.124;2022-11-20T03:24:01;96854.34;;;3.65;100.00
55914;BME280;58179;48.776;9.124;2022-11-20T03:26:27;96848.53;;;3.63;100.00
55914;BME280;58179;48.776;9.124;2022-11-20T03:28:55;96850.59;;;3.61;100.00
55914;BME280;58179;48.776;9.124;2022-11-20T03:31:25;96839.97;;;3.56;100.00
55914;BME280;58179;48.776;9.124;2022-11-20T03:33:53;96839.75;;;3.57;100.00
55914;BME280;58179;48.776;9.124;2022-11-20T03:36:20;96847.69;;;3.50;100.00
55914;BME280;58179;48.776;9.124;2022-11-20T03:38:46;96846.97;;;3.43;100.00
55914;BME280;58179;48.776;9.124;2022-11-20T03:41:15;96843.53;;;3.43;100.00
55914;BME280;58179;48.776;9.124;2022-11-20T03:43:41;96837.13;;;3.39;100.00
55914;BME280;58179;48.776;9.124;2022-11-20T03:46:07;96836.66;;;3.30;100.00
55914;BME280;58179;48.776;9.124;2022-11-20T03:48:33;96839.91;;;3.26;100.00
55914;BME280;58179;48.776;9.124;2022-11-20T03:51:13;96839.38;;;3.17;100.00
55914;BME280;58179;48.776;9.124;2022-11-20T03:53:39;96835.97;;;3.17;100.00
55914;BME280;58179;48.776;9.124;2022-11-20T03:56:07;96842.25;;;3.16;100.00
55914;BME280;58179;48.776;9.124;2022-11-20T03:58:34;96841.72;;;3.07;100.00
55914;BME280;58179;48.776;9.124;2022-11-20T04:01:06;96837.50;;;3.06;100.00
55914;BME280;58179;48.776;9.124;2022-11-20T04:03:33;96839.53;;;3.04;100.00
55914;BME280;58179;48.776;9.124;2022-11-20T04:06:03;96838.94;;;3.02;100.00
55914;BME280;58179;48.776;9.124;2022-11-20T04:08:30;96835.25;;;3.09;100.00
55914;BME280;58179;48.776;9.124;2022-11-20T04:10:56;96830.81;;;3.10;100.00
55914;BME280;58179;48.776;9.124;2022-11-20T04:13:22;96829.59;;;3.13;100.00
55914;BME280;58179;48.776;9.124;2022-11-20T04:15:48;96828.41;;;3.08;100.00
55914;BME280;58179;48.776;9.124;2022-11-20T04:18:14;96828.84;;;3.05;100.00
55914;BME280;58179;48.776;9.124;2022-11-20T04:20:40;96836.41;;;3.14;100.00
55914;BME280;58179;48.776;9.124;2022-11-20T04:23:06;96831.41;;;3.12;100.00
55914;BME280;58179;48.776;9.124;2022-11-20T04:25:34;96825.78;;;3.08;100.00
55914;BME280;58179;48.776;9.124;2022-11-20T04:27:59;96824.44;;;3.06;100.00
55914;BME280;58179;48.776;9.124;2022-11-20T04:30:25;96826.03;;;3.07;100.00
55914;BME280;58179;48.776;9.124;2022-11-20T04:32:52;96830.41;;;3.13;100.00
55914;BME280;58179;48.776;9.124;2022-11-20T04:35:18;96821.66;;;3.19;100.00
55914;BME280;58179;48.776;9.124;2022-11-20T04:37:44;96827.03;;;3.24;100.00
55914;BME280;58179;48.776;9.124;2022-11-20T04:40:11;96824.00;;;3.27;100.00
55914;BME280;58179;48.776;9.124;2022-11-20T04:42:39;96820.44;;;3.22;100.00
55914;BME280;58179;48.776;9.124;2022-11-20T04:45:06;96825.38;;;3.30;100.00
55914;BME280;58179;48.776;9.124;2022-11-20T04:47:32;96828.56;;;3.32;100.00
55914;BME280;58179;48.776;9.124;2022-11-20T04:49:57;96829.56;;;3.31;100.00
55914;BME280;58179;48.776;9.124;2022-11-20T04:52:23;96818.69;;;3.34;100.00
55914;BME280;58179;48.776;9.124;2022-11-20T04:54:49;96817.66;;;3.35;100.00
55914;BME280;58179;48.776;9.124;2022-11-20T04:57:18;96813.59;;;3.39;100.00
55914;BME280;58179;48.776;9.124;2022-11-20T04:59:45;96818.19;;;3.43;100.00
55914;BME280;58179;48.776;9.124;2022-11-20T05:02:11;96814.56;;;3.44;100.00
55914;BME280;58179;48.776;9.124;2022-11-20T05:04:37;96817.22;;;3.56;100.00
55914;BME280;58179;48.776;9.124;2022-11-20T05:07:03;96813.88;;;3.49;100.00
55914;BME280;58179;48.776;9.124;2022-11-20T05:09:30;96819.69;;;3.51;100.00
55914;BME280;58179;48.776;9.124;2022-11-20T05:11:56;96822.91;;;3.53;100.00
55914;BME280;58179;48.776;9.124;2022-11-20T05:14:22;96817.22;;;3.56;100.00
55914;BME280;58179;48.776;9.124;2022-11-20T05:16:49;96815.19;;;3.58;100.00
55914;BME280;58179;48.776;9.124;2022-11-20T05:19:15;96823.84;;;3.59;100.00
55914;BME280;58179;48.776;9.124;2022-11-20T05:21:41;96816.09;;;3.64;100.00
55914;BME280;58179;48.776;9.124;2022-11-20T05:24:07;96825.19;;;3.61;100.00
55914;BME280;58179;48.776;9.124;2022-11-20T05:26:33;96825.47;;;3.71;100.00
55914;BME280;58179;48.776;9.124;2022-11-20T05:28:59;96817.13;;;3.63;100.00
55914;BME280;58179;48.776;9.124;2022-11-20T05:31:25;96816.81;;;3.71;100.00
55914;BME280;58179;48.776;9.124;2022-11-20T05:33:53;96826.94;;;3.67;100.00
55914;BME280;58179;48.776;9.124;2022-11-20T05:36:19;96812.69;;;3.63;100.00
55914;BME280;58179;48.776;9.124;2022-11-20T05:38:45;96817.94;;;3.63;100.00
55914;BME280;58179;48.776;9.124;2022-11-20T05:41:12;96820.53;;;3.63;100.00
55914;BME280;58179;48.776;9.124;2022-11-20T05:43:40;96815.53;;;3.62;100.00
55914;BME280;58179;48.776;9.124;2022-11-20T05:46:08;96814.50;;;3.63;100.00
55914;BME280;58179;48.776;9.124;2022-11-20T05:48:37;96818.94;;;3.62;100.00
55914;BME280;58179;48.776;9.124;2022-11-20T05:51:07;96821.34;;;3.64;100.00
55914;BME280;58179;48.776;9.124;2022-11-20T05:53:34;96820.31;;;3.65;100.00
55914;BME280;58179;48.776;9.124;2022-11-20T05:56:02;96819.09;;;3.67;100.00
55914;BME280;58179;48.776;9.124;2022-11-20T05:58:29;96822.84;;;3.71;100.00
55914;BME280;58179;48.776;9.124;2022-11-20T06:01:03;96827.88;;;3.73;100.00
55914;BME280;58179;48.776;9.124;2022-11-20T06:03:29;96818.13;;;3.80;100.00
55914;BME280;58179;48.776;9.124;2022-11-20T06:05:55;96832.00;;;3.80;100.00
55914;BME280;58179;48.776;9.124;2022-11-20T06:08:22;96821.31;;;3.82;100.00
55914;BME280;58179;48.776;9.124;2022-11-20T06:10:48;96829.19;;;3.82;100.00
55914;BME280;58179;48.776;9.124;2022-11-20T06:13:14;96827.44;;;3.76;100.00
55914;BME280;58179;48.776;9.124;2022-11-20T06:15:39;96829.81;;;3.77;100.00
55914;BME280;58179;48.776;9.124;2022-11-20T06:18:05;96828.50;;;3.86;100.00
55914;BME280;58179;48.776;9.124;2022-11-20T06:20:31;96818.25;;;3.85;100.00
55914;BME280;58179;48.776;9.124;2022-11-20T06:22:57;96817.81;;;3.88;100.00
55914;BME280;58179;48.776;9.124;2022-11-20T06:25:24;96822.03;;;3.89;100.00
55914;BME280;58179;48.776;9.124;2022-11-20T06:27:50;96817.22;;;3.86;100.00
55914;BME280;58179;48.776;9.124;2022-11-20T06:30:16;96812.78;;;3.86;100.00
55914;BME280;58179;48.776;9.124;2022-11-20T06:32:42;96804.94;;;3.86;100.00
55914;BME280;58179;48.776;9.124;2022-11-20T06:35:09;96813.38;;;3.88;100.00
55914;BME280;58179;48.776;9.124;2022-11-20T06:37:35;96804.50;;;3.89;100.00
55914;BME280;58179;48.776;9.124;2022-11-20T06:40:01;96804.00;;;3.81;100.00
55914;BME280;58179;48.776;9.124;2022-11-20T06:42:28;96809.47;;;3.79;100.00
55914;BME280;58179;48.776;9.124;2022-11-20T06:44:54;96809.97;;;3.88;100.00
55914;BME280;58179;48.776;9.124;2022-11-20T06:47:19;96813.50;;;3.94;100.00
55914;BME280;58179;48.776;9.124;2022-11-20T06:49:45;96809.97;;;3.88;100.00
55914;BME280;58179;48.776;9.124;2022-11-20T06:52:11;96811.06;;;4.10;100.00
55914;BME280;58179;48.776;9.124;2022-11-20T06:54:37;96807.59;;;3.98;100.00
55914;BME280;58179;48.776;9.124;2022-11-20T06:57:03;96809.88;;;4.06;100.00
55914;BME280;58179;48.776;9.124;2022-11-20T06:59:30;96814.16;;;4.19;100.00
55914;BME280;58179;48.776;9.124;2022-11-20T07:01:56;96819.44;;;4.01;100.00
55914;BME280;58179;48.776;9.124;2022-11-20T07:04:22;96824.09;;;3.99;100.00
55914;BME280;58179;48.776;9.124;2022-11-20T07:06:48;96825.34;;;3.96;100.00
55914;BME280;58179;48.776;9.124;2022-11-20T07:09:14;96821.22;;;3.88;100.00
55914;BME280;58179;48.776;9.124;2022-11-20T07:11:40;96823.16;;;3.93;100.00
55914;BME280;58179;48.776;9.124;2022-11-20T07:14:06;96818.03;;;3.86;100.00
55914;BME280;58179;48.776;9.124;2022-11-20T07:16:33;96814.66;;;3.98;100.00
55914;BME280;58179;48.776;9.124;2022-11-20T07:18:59;96823.88;;;4.00;100.00
55914;BME280;58179;48.776;9.124;2022-11-20T07:21:25;96817.72;;;3.95;100.00
55914;BME280;58179;48.776;9.124;2022-11-20T07:23:51;96822.03;;;3.89;100.00
55914;BME280;58179;48.776;9.124;2022-11-20T07:26:17;96831.47;;;3.90;100.00
55914;BME280;58179;48.776;9.124;2022-11-20T07:28:45;96827.81;;;3.91;100.00
55914;BME280;58179;48.776;9.124;2022-11-20T07:31:11;96833.03;;;3.79;100.00
55914;BME280;58179;48.776;9.124;2022-11-20T07:33:39;96836.66;;;3.78;100.00
55914;BME280;58179;48.776;9.124;2022-11-20T07:36:06;96833.03;;;3.79;100.00
55914;BME280;58179;48.776;9.124;2022-11-20T07:38:32;96833.25;;;3.78;100.00
55914;BME280;58179;48.776;9.124;2022-11-20T07:40:58;96838.69;;;3.76;100.00
55914;BME280;58179;48.776;9.124;2022-11-20T07:43:24;96838.63;;;3.83;100.00
55914;BME280;58179;48.776;9.124;2022-11-20T07:45:50;96837.28;;;3.92;100.00
55914;BME280;58179;48.776;9.124;2022-11-20T07:48:16;96840.34;;;3.89;100.00
55914;BME280;58179;48.776;9.124;2022-11-20T07:50:43;96838.53;;;3.89;100.00
55914;BME280;58179;48.776;9.124;2022-11-20T07:53:09;96842.75;;;3.91;100.00
55914;BME280;58179;48.776;9.124;2022-11-20T07:55:35;96838.78;;;4.00;100.00
55914;BME280;58179;48.776;9.124;2022-11-20T07:58:01;96838.16;;;4.16;100.00
55914;BME280;58179;48.776;9.124;2022-11-20T08:00:27;96844.00;;;4.29;100.00
55914;BME280;58179;48.776;9.124;2022-11-20T08:02:53;96852.13;;;4.51;100.00
55914;BME280;58179;48.776;9.124;2022-11-20T08:05:19;96850.88;;;4.42;100.00
55914;BME280;58179;48.776;9.124;2022-11-20T08:07:47;96843.47;;;4.39;100.00
55914;BME280;58179;48.776;9.124;2022-11-20T08:10:15;96848.38;;;4.36;100.00
55914;BME280;58179;48.776;9.124;2022-11-20T08:12:45;96855.88;;;4.44;100.00
55914;BME280;58179;48.776;9.124;2022-11-20T08:15:31;96860.34;;;4.55;100.00
55914;BME280;58179;48.776;9.124;2022-11-20T08:18:02;96853.28;;;4.67;100.00
55914;BME280;58179;48.776;9.124;2022-11-20T08:20:29;96864.59;;;4.67;100.00
55914;BME280;58179;48.776;9.124;2022-11-20T08:23:00;96863.34;;;4.82;100.00
55914;BME280;58179;48.776;9.124;2022-11-20T08:25:26;96865.75;;;4.83;100.00
55914;BME280;58179;48.776;9.124;2022-11-20T08:27:53;96863.91;;;4.72;100.00
55914;BME280;58179;48.776;9.124;2022-11-20T08:30:19;96865.16;;;4.81;100.00
55914;BME280;58179;48.776;9.124;2022-11-20T08:32:45;96869.59;;;4.69;100.00
55914;BME280;58179;48.776;9.124;2022-11-20T08:35:11;96874.88;;;4.81;100.00
55914;BME280;58179;48.776;9.124;2022-11-20T08:37:36;96865.19;;;4.93;100.00
55914;BME280;58179;48.776;9.124;2022-11-20T08:40:10;96868.72;;;4.87;100.00
55914;BME280;58179;48.776;9.124;2022-11-20T08:42:37;96868.38;;;5.06;100.00
55914;BME280;58179;48.776;9.124;2022-11-20T08:45:04;96869.88;;;5.26;100.00
55914;BME280;58179;48.776;9.124;2022-11-20T08:47:30;96868.72;;;5.33;100.00
55914;BME280;58179;48.776;9.124;2022-11-20T08:49:56;96870.97;;;5.41;100.00
55914;BME280;58179;48.776;9.124;2022-11-20T08:52:22;96863.66;;;5.55;100.00
55914;BME280;58179;48.776;9.124;2022-11-20T08:54:48;96862.00;;;5.77;100.00
55914;BME280;58179;48.776;9.124;2022-11-20T08:57:15;96866.19;;;5.90;100.00
55914;BME280;58179;48.776;9.124;2022-11-20T08:59:41;96872.25;;;5.91;100.00
55914;BME280;58179;48.776;9.124;2022-11-20T09:02:08;96872.13;;;5.86;100.00
55914;BME280;58179;48.776;9.124;2022-11-20T09:04:34;96867.47;;;5.88;100.00
55914;BME280;58179;48.776;9.124;2022-11-20T09:07:01;96883.91;;;5.83;100.00
55914;BME280;58179;48.776;9.124;2022-11-20T09:09:26;96874.47;;;5.70;100.00
55914;BME280;58179;48.776;9.124;2022-11-20T09:11:52;96883.78;;;5.90;100.00
55914;BME280;58179;48.776;9.124;2022-11-20T09:14:20;96880.72;;;5.93;100.00
55914;BME280;58179;48.776;9.124;2022-11-20T09:16:47;96886.09;;;5.74;100.00
55914;BME280;58179;48.776;9.124;2022-11-20T09:19:13;96889.59;;;5.80;100.00
55914;BME280;58179;48.776;9.124;2022-11-20T09:21:39;96887.63;;;5.87;100.00
55914;BME280;58179;48.776;9.124;2022-11-20T09:24:06;96901.97;;;5.68;100.00
55914;BME280;58179;48.776;9.124;2022-11-20T09:26:31;96888.25;;;5.77;100.00
55914;BME280;58179;48.776;9.124;2022-11-20T09:28:57;96892.47;;;5.78;100.00
55914;BME280;58179;48.776;9.124;2022-11-20T09:31:25;96894.41;;;5.83;100.00
55914;BME280;58179;48.776;9.124;2022-11-20T09:33:52;96897.81;;;5.95;100.00
55914;BME280;58179;48.776;9.124;2022-11-20T09:36:18;96894.84;;;5.80;100.00
55914;BME280;58179;48.776;9.124;2022-11-20T09:38:44;96902.06;;;5.73;100.00
55914;BME280;58179;48.776;9.124;2022-11-20T09:44:40;96911.28;;;5.87;100.00
55914;BME280;58179;48.776;9.124;2022-11-20T09:47:16;96915.88;;;5.80;100.00
55914;BME280;58179;48.776;9.124;2022-11-20T09:49:59;96916.56;;;5.75;100.00
55914;BME280;58179;48.776;9.124;2022-11-20T09:52:40;96912.34;;;5.74;100.00
55914;BME280;58179;48.776;9.124;2022-11-20T09:55:12;96917.84;;;5.61;100.00
55914;BME280;58179;48.776;9.124;2022-11-20T09:57:42;96909.63;;;5.69;100.00
55914;BME280;58179;48.776;9.124;2022-11-20T10:00:13;96909.28;;;5.77;100.00
55914;BME280;58179;48.776;9.124;2022-11-20T10:02:44;96907.19;;;5.79;100.00
55914;BME280;58179;48.776;9.124;2022-11-20T10:05:18;96911.22;;;5.59;100.00
55914;BME280;58179;48.776;9.124;2022-11-20T10:07:51;96917.63;;;5.51;100.00
55914;BME280;58179;48.776;9.124;2022-11-20T10:10:29;96909.09;;;5.56;100.00
55914;BME280;58179;48.776;9.124;2022-11-20T10:13:14;96916.69;;;5.69;100.00
55914;BME280;58179;48.776;9.124;2022-11-20T10:15:55;96924.47;;;5.64;100.00
55914;BME280;58179;48.776;9.124;2022-11-20T10:18:40;96918.50;;;5.80;100.00
55914;BME280;58179;48.776;9.124;2022-11-20T10:21:16;96927.09;;;5.64;100.00
55914;BME280;58179;48.776;9.124;2022-11-20T10:24:07;96929.47;;;5.65;100.00
55914;BME280;58179;48.776;9.124;2022-11-20T10:26:48;96928.59;;;5.48;100.00
55914;BME280;58179;48.776;9.124;2022-11-20T10:29:21;96935.09;;;5.34;100.00
55914;BME280;58179;48.776;9.124;2022-11-20T10:31:52;96935.81;;;5.41;100.00
55914;BME280;58179;48.776;9.124;2022-11-20T10:34:25;96931.56;;;5.28;100.00
55914;BME280;58179;48.776;9.124;2022-11-20T10:36:58;96935.00;;;5.17;100.00
55914;BME280;58179;48.776;9.124;2022-11-20T10:39:35;96941.03;;;5.18;100.00
55914;BME280;58179;48.776;9.124;2022-11-20T10:42:03;96939.88;;;5.14;100.00
55914;BME280;58179;48.776;9.124;2022-11-20T10:44:34;96927.00;;;5.12;100.00
55914;BME280;58179;48.776;9.124;2022-11-20T10:47:20;96928.47;;;5.08;100.00
55914;BME280;58179;48.776;9.124;2022-11-20T10:49:52;96924.25;;;5.07;100.00
55914;BME280;58179;48.776;9.124;2022-11-20T10:52:26;96927.31;;;5.04;100.00
55914;BME280;58179;48.776;9.124;2022-11-20T10:55:09;96920.50;;;5.03;100.00
55914;BME280;58179;48.776;9.124;2022-11-20T10:57:52;96922.06;;;5.04;100.00
55914;BME280;58179;48.776;9.124;2022-11-20T11:00:23;96919.22;;;5.05;100.00
55914;BME280;58179;48.776;9.124;2022-11-20T11:02:51;96926.53;;;5.15;100.00
55914;BME280;58179;48.776;9.124;2022-11-20T11:05:31;96914.81;;;5.18;100.00
55914;BME280;58179;48.776;9.124;2022-11-20T11:07:59;96914.69;;;5.24;100.00
55914;BME280;58179;48.776;9.124;2022-11-20T11:10:32;96916.41;;;5.19;100.00
55914;BME280;58179;48.776;9.124;2022-11-20T11:13:01;96909.31;;;5.19;100.00
55914;BME280;58179;48.776;9.124;2022-11-20T11:15:30;96904.31;;;5.18;100.00
55914;BME280;58179;48.776;9.124;2022-11-20T11:18:02;96901.91;;;5.16;100.00
55914;BME280;58179;48.776;9.124;2022-11-20T11:20:29;96893.91;;;5.23;100.00
55914;BME280;58179;48.776;9.124;2022-11-20T11:22:57;96884.34;;;5.40;100.00
55914;BME280;58179;48.776;9.124;2022-11-20T11:25:28;96873.31;;;5.66;100.00
55914;BME280;58179;48.776;9.124;2022-11-20T11:27:57;96870.22;;;6.09;100.00
55914;BME280;58179;48.776;9.124;2022-11-20T11:30:25;96865.13;;;6.31;100.00
55914;BME280;58179;48.776;9.124;2022-11-20T11:33:03;96864.13;;;6.66;100.00
55914;BME280;58179;48.776;9.124;2022-11-20T11:35:31;96856.31;;;6.87;100.00
55914;BME280;58179;48.776;9.124;2022-11-20T11:38:05;96859.34;;;6.96;100.00
55914;BME280;58179;48.776;9.124;2022-11-20T11:40:35;96864.41;;;7.19;100.00
55914;BME280;58179;48.776;9.124;2022-11-20T11:43:07;96854.38;;;7.38;100.00
55914;BME280;58179;48.776;9.124;2022-11-20T11:46:02;96851.84;;;7.43;100.00
55914;BME280;58179;48.776;9.124;2022-11-20T11:48:30;96850.88;;;7.71;100.00
55914;BME280;58179;48.776;9.124;2022-11-20T11:50:57;96845.28;;;7.46;100.00
55914;BME280;58179;48.776;9.124;2022-11-20T11:53:25;96839.09;;;7.35;100.00
55914;BME280;58179;48.776;9.124;2022-11-20T11:55:58;96838.56;;;7.16;100.00
55914;BME280;58179;48.776;9.124;2022-11-20T11:58:41;96836.25;;;7.20;100.00
55914;BME280;58179;48.776;9.124;2022-11-20T12:01:24;96841.06;;;7.06;100.00
55914;BME280;58179;48.776;9.124;2022-11-20T12:04:02;96831.84;;;6.87;100.00
55914;BME280;58179;48.776;9.124;2022-11-20T12:06:33;96831.75;;;6.82;100.00
55914;BME280;58179;48.776;9.124;2022-11-20T12:09:03;96837.81;;;6.82;100.00
55914;BME280;58179;48.776;9.124;2022-11-20T12:11:35;96830.72;;;6.66;100.00
55914;BME280;58179;48.776;9.124;2022-11-20T12:14:11;96835.19;;;6.66;100.00
55914;BME280;58179;48.776;9.124;2022-11-20T12:16:40;96826.91;;;6.74;100.00
55914;BME280;58179;48.776;9.124;2022-11-20T12:19:10;96823.31;;;6.80;100.00
55914;BME280;58179;48.776;9.124;2022-11-20T12:21:49;96824.00;;;6.92;100.00
55914;BME280;58179;48.776;9.124;2022-11-20T12:24:42;96814.25;;;7.09;100.00
55914;BME280;58179;48.776;9.124;2022-11-20T12:27:57;96816.94;;;7.14;100.00
55914;BME280;58179;48.776;9.124;2022-11-20T12:30:29;96813.66;;;7.46;100.00
55914;BME280;58179;48.776;9.124;2022-11-20T12:33:27;96817.53;;;7.82;100.00
55914;BME280;58179;48.776;9.124;2022-11-20T12:36:11;96811.00;;;8.11;100.00
55914;BME280;58179;48.776;9.124;2022-11-20T12:39:07;96813.66;;;8.16;100.00
55914;BME280;58179;48.776;9.124;2022-11-20T12:45:06;96815.16;;;8.07;100.00
55914;BME280;58179;48.776;9.124;2022-11-20T12:47:50;96810.34;;;8.26;100.00
55914;BME280;58179;48.776;9.124;2022-11-20T12:50:28;96808.38;;;8.43;100.00
55914;BME280;58179;48.776;9.124;2022-11-20T12:52:58;96809.31;;;8.59;100.00
55914;BME280;58179;48.776;9.124;2022-11-20T12:55:39;96817.31;;;8.69;100.00
55914;BME280;58179;48.776;9.124;2022-11-20T12:58:12;96808.97;;;8.50;100.00
55914;BME280;58179;48.776;9.124;2022-11-20T13:00:50;96808.97;;;8.50;100.00
55914;BME280;58179;48.776;9.124;2022-11-20T13:03:41;96806.31;;;8.45;100.00
55914;BME280;58179;48.776;9.124;2022-11-20T13:06:15;96795.38;;;8.63;100.00
55914;BME280;58179;48.776;9.124;2022-11-20T13:08:47;96813.28;;;8.61;100.00
55914;BME280;58179;48.776;9.124;2022-11-20T13:11:23;96817.88;;;8.44;100.00
55914;BME280;58179;48.776;9.124;2022-11-20T13:14:14;96825.13;;;8.27;100.00
55914;BME280;58179;48.776;9.124;2022-11-20T13:16:51;96825.97;;;8.32;100.00
55914;BME280;58179;48.776;9.124;2022-11-20T13:19:20;96817.44;;;7.98;100.00